createdAt,value
2018-02-11T00:00:13.731Z,91.86
2018-02-11T00:00:53.444Z,91.38
2018-02-11T00:01:30.951Z,91.67
2018-02-11T00:02:08.062Z,91.67
2018-02-11T00:02:46.375Z,91.95
2018-02-11T00:03:21.655Z,91.86
2018-02-11T00:03:57.166Z,92.33
2018-02-11T00:04:32.946Z,92.14
2018-02-11T00:05:08.360Z,91.76
2018-02-11T00:05:45.745Z,91.48
2018-02-11T00:06:22.056Z,91.95
2018-02-11T00:06:57.278Z,91.86
2018-02-11T00:07:32.489Z,91.76
2018-02-11T00:08:07.684Z,91.48
2018-02-11T00:08:43.296Z,92.05
2018-02-11T00:09:18.512Z,91.48
2018-02-11T00:09:54.100Z,91.29
2018-02-11T00:10:30.515Z,91.67
2018-02-11T00:11:07.096Z,90.91
2018-02-11T00:11:43.018Z,91.86
2018-02-11T00:12:20.936Z,91.67
2018-02-11T00:12:56.245Z,91.57
2018-02-11T00:13:31.434Z,91.67
2018-02-11T00:14:06.846Z,91.48
2018-02-11T00:14:42.421Z,90.91
2018-02-11T00:15:17.974Z,90.91
2018-02-11T00:15:53.388Z,91.76
2018-02-11T00:16:28.485Z,91.76
2018-02-11T00:17:03.812Z,91.57
2018-02-11T00:17:39.239Z,92.24
2018-02-11T00:18:14.553Z,92.24
2018-02-11T00:18:50.141Z,92.52
2018-02-11T00:19:25.364Z,92.52
2018-02-11T00:20:00.659Z,92.14
2018-02-11T00:20:36.884Z,91.76
2018-02-11T00:21:12.204Z,90.91
2018-02-11T00:21:47.496Z,91.00
2018-02-11T00:22:23.010Z,90.81
2018-02-11T00:22:58.547Z,91.67
2018-02-11T00:23:34.069Z,91.57
2018-02-11T00:24:09.276Z,92.99
2018-02-11T00:24:46.607Z,93.37
2018-02-11T00:25:21.804Z,92.61
2018-02-11T00:25:57.238Z,92.14
2018-02-11T00:26:32.432Z,92.14
2018-02-11T00:27:07.877Z,92.14
2018-02-11T00:27:43.007Z,91.95
2018-02-11T00:28:18.232Z,91.29
2018-02-11T00:28:53.963Z,91.76
2018-02-11T00:29:29.257Z,91.67
2018-02-11T00:30:04.813Z,92.14
2018-02-11T00:30:42.115Z,91.95
2018-02-11T00:31:17.535Z,91.38
2018-02-11T00:31:54.446Z,91.29
2018-02-11T00:32:30.586Z,91.67
2018-02-11T00:33:05.433Z,91.38
2018-02-11T00:33:40.888Z,91.57
2018-02-11T00:34:17.424Z,91.67
2018-02-11T00:34:54.324Z,91.10
2018-02-11T00:35:29.543Z,91.76
2018-02-11T00:36:05.041Z,91.86
2018-02-11T00:36:42.778Z,91.76
2018-02-11T00:37:18.579Z,91.86
2018-02-11T00:37:53.906Z,91.76
2018-02-11T00:38:29.505Z,91.76
2018-02-11T00:39:04.668Z,91.86
2018-02-11T00:39:40.094Z,91.38
2018-02-11T00:40:15.390Z,91.00
2018-02-11T00:40:55.920Z,91.67
2018-02-11T00:41:31.220Z,91.67
2018-02-11T00:42:06.751Z,91.19
2018-02-11T00:42:43.452Z,91.57
2018-02-11T00:43:18.779Z,91.57
2018-02-11T00:43:54.080Z,91.76
2018-02-11T00:44:29.455Z,92.14
2018-02-11T00:45:04.883Z,92.52
2018-02-11T00:45:44.187Z,91.95
2018-02-11T00:46:19.827Z,91.48
2018-02-11T00:46:55.236Z,91.57
2018-02-11T00:47:30.259Z,91.95
2018-02-11T00:48:05.863Z,90.91
2018-02-11T00:48:41.188Z,91.48
2018-02-11T00:49:16.284Z,91.76
2018-02-11T00:49:51.643Z,92.14
2018-02-11T00:50:26.968Z,91.57
2018-02-11T00:51:02.168Z,91.38
2018-02-11T00:51:37.292Z,91.67
2018-02-11T00:52:12.686Z,91.67
2018-02-11T00:52:48.023Z,90.91
2018-02-11T00:53:23.319Z,91.57
2018-02-11T00:53:58.643Z,91.57
2018-02-11T00:54:33.844Z,92.14
2018-02-11T00:55:09.102Z,92.14
2018-02-11T00:55:46.198Z,91.57
2018-02-11T00:56:21.232Z,90.91
2018-02-11T00:56:56.967Z,90.72
2018-02-11T00:57:32.364Z,90.81
2018-02-11T00:58:07.997Z,91.38
2018-02-11T00:58:43.202Z,91.10
2018-02-11T00:59:18.524Z,91.00
2018-02-11T00:59:53.927Z,91.48
2018-02-11T01:00:29.679Z,91.57
2018-02-11T01:01:04.984Z,92.33
2018-02-11T01:01:40.205Z,91.95
2018-02-11T01:02:15.419Z,91.67
2018-02-11T01:02:50.605Z,91.57
2018-02-11T01:03:25.917Z,91.86
2018-02-11T01:04:01.198Z,91.10
2018-02-11T01:04:36.626Z,91.57
2018-02-11T01:05:11.898Z,91.76
2018-02-11T01:05:50.835Z,91.00
2018-02-11T01:06:26.127Z,91.76
2018-02-11T01:07:01.225Z,91.57
2018-02-11T01:07:37.033Z,91.57
2018-02-11T01:08:12.302Z,91.38
2018-02-11T01:08:48.740Z,90.63
2018-02-11T01:09:24.109Z,91.10
2018-02-11T01:09:59.406Z,91.00
2018-02-11T01:10:34.702Z,91.00
2018-02-11T01:11:10.328Z,91.00
2018-02-11T01:11:47.517Z,90.91
2018-02-11T01:12:23.113Z,90.91
2018-02-11T01:12:58.259Z,91.76
2018-02-11T01:13:33.451Z,91.86
2018-02-11T01:14:08.665Z,91.57
2018-02-11T01:14:44.052Z,91.67
2018-02-11T01:15:19.260Z,91.76
2018-02-11T01:15:55.551Z,92.05
2018-02-11T01:16:30.995Z,91.38
2018-02-11T01:17:06.270Z,91.76
2018-02-11T01:17:41.772Z,91.76
2018-02-11T01:18:17.071Z,91.76
2018-02-11T01:18:52.788Z,91.95
2018-02-11T01:19:28.164Z,92.05
2018-02-11T01:20:03.894Z,91.57
2018-02-11T01:20:40.614Z,92.43
2018-02-11T01:21:16.011Z,92.24
2018-02-11T01:21:51.453Z,93.18
2018-02-11T01:22:26.734Z,93.18
2018-02-11T01:23:01.939Z,93.56
2018-02-11T01:23:37.618Z,93.18
2018-02-11T01:24:12.938Z,92.90
2018-02-11T01:24:48.404Z,92.90
2018-02-11T01:25:23.614Z,93.27
2018-02-11T01:26:00.323Z,92.99
2018-02-11T01:26:36.319Z,92.80
2018-02-11T01:27:11.660Z,93.56
2018-02-11T01:27:47.462Z,93.37
2018-02-11T01:28:22.575Z,93.27
2018-02-11T01:28:57.746Z,93.65
2018-02-11T01:29:33.058Z,93.75
2018-02-11T01:30:08.541Z,93.18
2018-02-11T01:30:49.741Z,93.65
2018-02-11T01:31:25.061Z,93.27
2018-02-11T01:32:00.340Z,93.84
2018-02-11T01:32:35.866Z,93.37
2018-02-11T01:33:11.253Z,93.46
2018-02-11T01:33:49.962Z,94.60
2018-02-11T01:34:27.643Z,94.32
2018-02-11T01:35:04.673Z,94.32
2018-02-11T01:35:40.801Z,94.79
2018-02-11T01:36:16.395Z,94.98
2018-02-11T01:36:52.714Z,94.89
2018-02-11T01:37:27.996Z,95.17
2018-02-11T01:38:03.241Z,95.36
2018-02-11T01:38:40.326Z,96.12
2018-02-11T01:39:15.546Z,96.31
2018-02-11T01:39:51.148Z,96.50
2018-02-11T01:40:26.444Z,96.21
2018-02-11T01:41:01.639Z,96.21
2018-02-11T01:41:37.139Z,96.40
2018-02-11T01:42:12.616Z,96.50
2018-02-11T01:42:49.138Z,96.31
2018-02-11T01:43:24.383Z,96.12
2018-02-11T01:43:59.463Z,96.59
2018-02-11T01:44:36.390Z,96.40
2018-02-11T01:45:13.981Z,96.50
2018-02-11T01:45:49.696Z,97.35
2018-02-11T01:46:25.087Z,97.16
2018-02-11T01:47:00.198Z,96.59
2018-02-11T01:47:35.515Z,96.21
2018-02-11T01:48:10.808Z,96.59
2018-02-11T01:48:47.563Z,96.50
2018-02-11T01:49:22.862Z,96.69
2018-02-11T01:49:58.178Z,97.16
2018-02-11T01:50:33.262Z,97.25
2018-02-11T01:51:09.476Z,97.16
2018-02-11T01:51:45.045Z,97.25
2018-02-11T01:52:20.656Z,97.06
2018-02-11T01:52:55.977Z,97.25
2018-02-11T01:53:31.474Z,97.25
2018-02-11T01:54:07.409Z,96.97
2018-02-11T01:54:43.812Z,98.68
2018-02-11T01:55:19.224Z,98.39
2018-02-11T01:55:54.607Z,98.49
2018-02-11T01:56:29.923Z,98.86
2018-02-11T01:57:04.921Z,98.77
2018-02-11T01:57:40.248Z,99.05
2018-02-11T01:58:15.542Z,98.77
2018-02-11T01:58:51.161Z,99.05
2018-02-11T01:59:26.479Z,99.33
2018-02-11T02:00:02.204Z,99.33
2018-02-11T02:00:40.337Z,98.77
2018-02-11T02:01:18.818Z,98.96
2018-02-11T02:01:54.417Z,98.96
2018-02-11T02:02:29.600Z,99.05
2018-02-11T02:03:06.035Z,98.96
2018-02-11T02:03:41.203Z,98.96
2018-02-11T02:04:16.531Z,99.24
2018-02-11T02:04:52.164Z,99.19
2018-02-11T02:05:29.273Z,98.77
2018-02-11T02:06:04.916Z,98.72
2018-02-11T02:06:42.811Z,98.91
2018-02-11T02:07:19.831Z,99.05
2018-02-11T02:07:56.818Z,99.10
2018-02-11T02:08:32.334Z,98.96
2018-02-11T02:09:07.827Z,99.10
2018-02-11T02:09:43.658Z,98.82
2018-02-11T02:10:18.982Z,99.29
2018-02-11T02:10:56.790Z,99.10
2018-02-11T02:11:32.217Z,99.10
2018-02-11T02:12:07.725Z,99.01
2018-02-11T02:12:43.132Z,99.01
2018-02-11T02:13:18.242Z,99.10
2018-02-11T02:13:53.568Z,99.38
2018-02-11T02:14:28.751Z,99.38
2018-02-11T02:15:03.948Z,99.01
2018-02-11T02:15:40.077Z,99.10
2018-02-11T02:16:15.699Z,99.19
2018-02-11T02:16:51.516Z,98.91
2018-02-11T02:17:26.911Z,99.29
2018-02-11T02:18:02.334Z,99.38
2018-02-11T02:18:38.936Z,99.29
2018-02-11T02:19:14.531Z,99.29
2018-02-11T02:19:49.826Z,99.01
2018-02-11T02:20:24.950Z,99.10
2018-02-11T02:21:03.751Z,99.10
2018-02-11T02:21:39.076Z,99.01
2018-02-11T02:22:14.207Z,99.29
2018-02-11T02:22:49.598Z,99.29
2018-02-11T02:23:24.809Z,99.48
2018-02-11T02:24:00.213Z,99.48
2018-02-11T02:24:35.230Z,99.10
2018-02-11T02:25:10.530Z,98.72
2018-02-11T02:25:45.847Z,98.82
2018-02-11T02:26:21.153Z,98.82
2018-02-11T02:26:56.675Z,98.72
2018-02-11T02:27:31.869Z,98.82
2018-02-11T02:28:07.201Z,98.82
2018-02-11T02:28:44.786Z,98.82
2018-02-11T02:29:20.307Z,98.63
2018-02-11T02:29:55.539Z,98.82
2018-02-11T02:30:31.013Z,97.87
2018-02-11T02:31:06.448Z,98.44
2018-02-11T02:31:41.548Z,98.44
2018-02-11T02:32:16.858Z,98.53
2018-02-11T02:32:52.369Z,98.06
2018-02-11T02:33:27.678Z,97.49
2018-02-11T02:34:03.076Z,97.68
2018-02-11T02:34:39.406Z,97.39
2018-02-11T02:35:15.062Z,97.58
2018-02-11T02:35:50.362Z,97.58
2018-02-11T02:36:25.681Z,96.73
2018-02-11T02:37:01.185Z,97.30
2018-02-11T02:37:36.699Z,96.35
2018-02-11T02:38:11.899Z,96.73
2018-02-11T02:38:47.009Z,96.92
2018-02-11T02:39:22.199Z,97.02
2018-02-11T02:39:57.918Z,96.35
2018-02-11T02:40:33.109Z,96.45
2018-02-11T02:41:08.424Z,96.45
2018-02-11T02:41:43.663Z,96.64
2018-02-11T02:42:18.943Z,95.78
2018-02-11T02:42:57.058Z,96.73
2018-02-11T02:43:32.433Z,95.97
2018-02-11T02:44:07.940Z,96.07
2018-02-11T02:44:43.516Z,96.16
2018-02-11T02:45:19.645Z,96.07
2018-02-11T02:45:54.919Z,95.40
2018-02-11T02:46:30.144Z,96.16
2018-02-11T02:47:05.544Z,96.16
2018-02-11T02:47:41.137Z,95.21
2018-02-11T02:48:16.649Z,95.40
2018-02-11T02:48:52.224Z,95.69
2018-02-11T02:49:27.340Z,95.59
2018-02-11T02:50:02.508Z,95.31
2018-02-11T02:50:40.457Z,95.40
2018-02-11T02:51:17.751Z,95.50
2018-02-11T02:51:53.263Z,95.31
2018-02-11T02:52:28.645Z,95.50
2018-02-11T02:53:04.263Z,95.40
2018-02-11T02:53:39.784Z,95.12
2018-02-11T02:54:14.870Z,95.03
2018-02-11T02:54:50.396Z,94.93
2018-02-11T02:55:25.663Z,95.50
2018-02-11T02:56:00.965Z,94.93
2018-02-11T02:56:36.465Z,94.74
2018-02-11T02:57:11.965Z,94.93
2018-02-11T02:57:47.660Z,94.18
2018-02-11T02:58:22.936Z,94.84
2018-02-11T02:58:58.241Z,94.56
2018-02-11T02:59:33.410Z,95.03
2018-02-11T03:00:08.512Z,95.12
2018-02-11T03:00:48.078Z,94.56
2018-02-11T03:01:23.378Z,94.93
2018-02-11T03:01:59.277Z,94.93
2018-02-11T03:02:34.675Z,94.56
2018-02-11T03:03:09.947Z,94.74
2018-02-11T03:03:45.650Z,94.93
2018-02-11T03:04:20.763Z,94.74
2018-02-11T03:04:56.147Z,94.56
2018-02-11T03:05:31.381Z,95.21
2018-02-11T03:06:06.475Z,95.31
2018-02-11T03:06:41.911Z,94.74
2018-02-11T03:07:17.401Z,95.12
2018-02-11T03:07:53.405Z,94.93
2018-02-11T03:08:28.789Z,94.65
2018-02-11T03:09:04.099Z,94.84
2018-02-11T03:09:39.686Z,94.65
2018-02-11T03:10:15.098Z,94.46
2018-02-11T03:10:50.521Z,94.65
2018-02-11T03:11:26.094Z,94.74
2018-02-11T03:12:01.623Z,94.27
2018-02-11T03:12:36.908Z,95.50
2018-02-11T03:13:12.719Z,94.65
2018-02-11T03:13:48.403Z,94.74
2018-02-11T03:14:23.610Z,94.74
2018-02-11T03:14:58.679Z,95.12
2018-02-11T03:15:33.979Z,95.21
2018-02-11T03:16:09.355Z,95.03
2018-02-11T03:16:44.488Z,95.03
2018-02-11T03:17:20.004Z,94.93
2018-02-11T03:17:55.186Z,95.03
2018-02-11T03:18:30.287Z,94.56
2018-02-11T03:19:05.875Z,95.31
2018-02-11T03:19:41.274Z,95.40
2018-02-11T03:20:16.466Z,95.40
2018-02-11T03:20:51.574Z,95.69
2018-02-11T03:21:27.058Z,95.40
2018-02-11T03:22:02.408Z,94.74
2018-02-11T03:22:37.681Z,95.21
2018-02-11T03:23:12.911Z,95.12
2018-02-11T03:23:48.426Z,94.74
2018-02-11T03:24:24.313Z,95.40
2018-02-11T03:24:59.524Z,95.31
2018-02-11T03:25:34.699Z,94.93
2018-02-11T03:26:10.928Z,94.93
2018-02-11T03:26:46.237Z,94.84
2018-02-11T03:27:21.664Z,95.03
2018-02-11T03:28:00.743Z,95.31
2018-02-11T03:28:36.211Z,95.40
2018-02-11T03:29:11.592Z,95.31
2018-02-11T03:29:48.288Z,95.03
2018-02-11T03:30:23.704Z,95.69
2018-02-11T03:30:58.978Z,95.88
2018-02-11T03:31:34.466Z,94.84
2018-02-11T03:32:10.481Z,95.69
2018-02-11T03:32:45.899Z,95.50
2018-02-11T03:33:21.107Z,95.31
2018-02-11T03:33:57.011Z,95.59
2018-02-11T03:34:32.449Z,95.40
2018-02-11T03:35:07.815Z,95.78
2018-02-11T03:35:43.448Z,95.31
2018-02-11T03:36:18.935Z,95.50
2018-02-11T03:36:54.280Z,95.78
2018-02-11T03:37:30.952Z,95.50
2018-02-11T03:38:06.250Z,94.93
2018-02-11T03:38:42.338Z,95.88
2018-02-11T03:39:18.048Z,95.59
2018-02-11T03:39:53.041Z,95.50
2018-02-11T03:40:28.243Z,95.40
2018-02-11T03:41:03.666Z,95.69
2018-02-11T03:41:38.867Z,95.50
2018-02-11T03:42:14.192Z,95.40
2018-02-11T03:42:49.382Z,95.59
2018-02-11T03:43:24.997Z,95.40
2018-02-11T03:44:00.107Z,95.50
2018-02-11T03:44:35.521Z,95.12
2018-02-11T03:45:11.118Z,95.88
2018-02-11T03:45:46.731Z,95.40
2018-02-11T03:46:22.103Z,95.03
2018-02-11T03:46:57.332Z,95.59
2018-02-11T03:47:33.040Z,95.40
2018-02-11T03:48:09.114Z,95.12
2018-02-11T03:48:44.711Z,95.12
2018-02-11T03:49:20.002Z,94.65
2018-02-11T03:49:55.225Z,94.93
2018-02-11T03:50:30.622Z,94.56
2018-02-11T03:51:06.640Z,94.93
2018-02-11T03:51:42.140Z,94.46
2018-02-11T03:52:17.383Z,95.03
2018-02-11T03:52:52.611Z,94.56
2018-02-11T03:53:28.010Z,94.46
2018-02-11T03:54:03.131Z,94.18
2018-02-11T03:54:38.831Z,94.18
2018-02-11T03:55:14.556Z,94.65
2018-02-11T03:55:50.353Z,94.08
2018-02-11T03:56:25.779Z,94.27
2018-02-11T03:57:01.160Z,94.65
2018-02-11T03:57:36.891Z,94.84
2018-02-11T03:58:12.073Z,95.12
2018-02-11T03:58:47.774Z,94.74
2018-02-11T03:59:23.289Z,94.56
2018-02-11T03:59:58.660Z,94.84
2018-02-11T04:00:33.964Z,94.27
2018-02-11T04:01:09.150Z,93.99
2018-02-11T04:01:44.852Z,94.93
2018-02-11T04:02:20.152Z,95.03
2018-02-11T04:02:55.555Z,94.74
2018-02-11T04:03:30.626Z,94.84
2018-02-11T04:04:05.828Z,94.74
2018-02-11T04:04:41.112Z,94.79
2018-02-11T04:05:16.518Z,94.98
2018-02-11T04:05:51.823Z,94.04
2018-02-11T04:06:27.200Z,94.93
2018-02-11T04:07:02.501Z,95.55
2018-02-11T04:07:38.098Z,94.42
2018-02-11T04:08:13.499Z,94.84
2018-02-11T04:08:48.777Z,94.98
2018-02-11T04:09:23.979Z,94.70
2018-02-11T04:09:59.552Z,94.60
2018-02-11T04:10:34.864Z,94.98
2018-02-11T04:11:10.239Z,95.36
2018-02-11T04:11:45.242Z,94.79
2018-02-11T04:12:20.772Z,95.45
2018-02-11T04:12:56.148Z,95.36
2018-02-11T04:13:31.465Z,95.17
2018-02-11T04:14:06.735Z,95.36
2018-02-11T04:14:42.150Z,94.89
2018-02-11T04:15:17.347Z,95.45
2018-02-11T04:15:55.872Z,95.45
2018-02-11T04:16:31.054Z,95.45
2018-02-11T04:17:06.664Z,94.79
2018-02-11T04:17:42.417Z,94.70
2018-02-11T04:18:18.116Z,95.55
2018-02-11T04:18:53.327Z,95.07
2018-02-11T04:19:28.702Z,94.89
2018-02-11T04:20:04.210Z,95.26
2018-02-11T04:20:39.796Z,94.89
2018-02-11T04:21:15.410Z,95.45
2018-02-11T04:21:50.705Z,95.36
2018-02-11T04:22:25.952Z,94.98
2018-02-11T04:23:01.358Z,95.36
2018-02-11T04:23:36.637Z,95.26
2018-02-11T04:24:12.259Z,94.98
2018-02-11T04:24:47.740Z,95.07
2018-02-11T04:25:22.946Z,94.60
2018-02-11T04:25:58.252Z,94.89
2018-02-11T04:26:33.464Z,95.17
2018-02-11T04:27:08.868Z,94.98
2018-02-11T04:27:44.000Z,94.60
2018-02-11T04:28:19.283Z,94.89
2018-02-11T04:28:54.589Z,95.45
2018-02-11T04:29:30.105Z,94.42
2018-02-11T04:30:05.478Z,94.79
2018-02-11T04:30:41.778Z,94.98
2018-02-11T04:31:17.081Z,94.98
2018-02-11T04:31:52.283Z,94.98
2018-02-11T04:32:27.495Z,95.36
2018-02-11T04:33:02.907Z,94.98
2018-02-11T04:33:38.114Z,94.79
2018-02-11T04:34:13.332Z,94.60
2018-02-11T04:34:48.904Z,94.70
2018-02-11T04:35:24.204Z,94.79
2018-02-11T04:35:59.532Z,94.93
2018-02-11T04:36:35.138Z,94.65
2018-02-11T04:37:10.752Z,94.79
2018-02-11T04:37:46.265Z,94.37
2018-02-11T04:38:21.880Z,94.23
2018-02-11T04:38:56.976Z,93.89
2018-02-11T04:39:32.290Z,94.32
2018-02-11T04:40:07.579Z,93.70
2018-02-11T04:40:43.283Z,93.51
2018-02-11T04:41:18.557Z,93.80
2018-02-11T04:41:54.196Z,93.89
2018-02-11T04:42:29.493Z,92.85
2018-02-11T04:43:05.633Z,92.94
2018-02-11T04:43:40.952Z,92.57
2018-02-11T04:44:16.340Z,92.47
2018-02-11T04:44:51.870Z,92.29
2018-02-11T04:45:26.865Z,92.24
2018-02-11T04:46:02.979Z,92.19
2018-02-11T04:46:38.498Z,91.67
2018-02-11T04:47:13.770Z,91.62
2018-02-11T04:47:49.119Z,91.67
2018-02-11T04:48:24.414Z,91.76
2018-02-11T04:48:59.637Z,91.05
2018-02-11T04:49:34.825Z,90.91
2018-02-11T04:50:10.147Z,90.72
2018-02-11T04:50:47.061Z,91.29
2018-02-11T04:51:22.262Z,90.72
2018-02-11T04:51:57.363Z,90.91
2018-02-11T04:52:32.783Z,90.34
2018-02-11T04:53:07.893Z,91.10
2018-02-11T04:53:43.207Z,90.34
2018-02-11T04:54:18.513Z,90.25
2018-02-11T04:54:53.905Z,90.53
2018-02-11T04:55:29.211Z,89.87
2018-02-11T04:56:04.888Z,89.58
2018-02-11T04:56:40.121Z,88.73
2018-02-11T04:57:15.409Z,88.54
2018-02-11T04:57:50.651Z,88.92
2018-02-11T04:58:25.940Z,89.20
2018-02-11T04:59:01.342Z,89.39
2018-02-11T04:59:36.448Z,89.30
2018-02-11T05:00:11.925Z,89.30
2018-02-11T05:00:51.230Z,89.49
2018-02-11T05:01:26.620Z,89.20
2018-02-11T05:02:02.021Z,89.30
2018-02-11T05:02:38.399Z,89.96
2018-02-11T05:03:15.238Z,89.49
2018-02-11T05:03:50.530Z,89.39
2018-02-11T05:04:26.041Z,89.11
2018-02-11T05:05:01.143Z,90.34
2018-02-11T05:05:37.465Z,89.20
2018-02-11T05:06:12.762Z,89.96
2018-02-11T05:06:47.989Z,88.73
2018-02-11T05:07:23.502Z,89.11
2018-02-11T05:07:58.826Z,89.30
2018-02-11T05:08:34.436Z,89.11
2018-02-11T05:09:10.036Z,89.77
2018-02-11T05:09:45.628Z,89.49
2018-02-11T05:10:21.124Z,90.15
2018-02-11T05:10:59.236Z,89.30
2018-02-11T05:11:34.835Z,89.96
2018-02-11T05:12:10.233Z,89.49
2018-02-11T05:12:45.564Z,90.06
2018-02-11T05:13:20.865Z,89.68
2018-02-11T05:13:56.172Z,88.73
2018-02-11T05:14:31.354Z,89.20
2018-02-11T05:15:06.665Z,88.92
2018-02-11T05:15:42.447Z,88.73
2018-02-11T05:16:17.756Z,89.11
2018-02-11T05:16:53.461Z,88.73
2018-02-11T05:17:29.078Z,88.54
2018-02-11T05:18:04.620Z,88.64
2018-02-11T05:18:40.118Z,88.92
2018-02-11T05:19:15.234Z,88.64
2018-02-11T05:19:50.730Z,88.26
2018-02-11T05:20:26.232Z,88.82
2018-02-11T05:21:01.723Z,88.54
2018-02-11T05:21:37.630Z,88.35
2018-02-11T05:22:12.919Z,88.82
2018-02-11T05:22:48.632Z,88.17
2018-02-11T05:23:23.950Z,88.17
2018-02-11T05:23:59.251Z,88.45
2018-02-11T05:24:34.489Z,87.98
2018-02-11T05:25:13.077Z,87.88
2018-02-11T05:25:48.378Z,87.21
2018-02-11T05:26:23.948Z,86.74
2018-02-11T05:26:58.975Z,86.18
2018-02-11T05:27:34.173Z,85.51
2018-02-11T05:28:09.529Z,85.42
2018-02-11T05:28:44.927Z,85.04
2018-02-11T05:29:20.126Z,85.89
2018-02-11T05:29:55.432Z,85.61
2018-02-11T05:30:30.815Z,85.13
2018-02-11T05:31:06.148Z,84.94
2018-02-11T05:31:41.435Z,85.13
2018-02-11T05:32:16.847Z,84.85
2018-02-11T05:32:52.228Z,84.85
2018-02-11T05:33:27.981Z,84.28
2018-02-11T05:34:03.155Z,85.51
2018-02-11T05:34:38.384Z,85.51
2018-02-11T05:35:13.979Z,84.75
2018-02-11T05:35:50.794Z,84.94
2018-02-11T05:36:26.026Z,84.56
2018-02-11T05:37:01.513Z,85.89
2018-02-11T05:37:36.845Z,85.51
2018-02-11T05:38:12.235Z,85.61
2018-02-11T05:38:47.480Z,85.23
2018-02-11T05:39:22.765Z,85.51
2018-02-11T05:39:58.187Z,85.23
2018-02-11T05:40:33.377Z,85.51
2018-02-11T05:41:08.899Z,85.32
2018-02-11T05:41:44.284Z,85.42
2018-02-11T05:42:19.709Z,84.75
2018-02-11T05:42:55.027Z,84.85
2018-02-11T05:43:30.252Z,84.94
2018-02-11T05:44:05.654Z,84.56
2018-02-11T05:44:40.928Z,84.94
2018-02-11T05:45:18.237Z,84.19
2018-02-11T05:45:53.717Z,84.85
2018-02-11T05:46:29.120Z,84.75
2018-02-11T05:47:04.723Z,84.85
2018-02-11T05:47:40.143Z,84.14
2018-02-11T05:48:15.236Z,84.66
2018-02-11T05:48:52.173Z,84.05
2018-02-11T05:49:27.482Z,84.33
2018-02-11T05:50:02.592Z,83.76
2018-02-11T05:50:41.349Z,83.48
2018-02-11T05:51:16.592Z,82.63
2018-02-11T05:51:51.909Z,81.68
2018-02-11T05:52:27.082Z,80.64
2018-02-11T05:53:02.409Z,80.17
2018-02-11T05:53:39.031Z,79.69
2018-02-11T05:54:14.248Z,79.69
2018-02-11T05:54:49.659Z,78.75
2018-02-11T05:55:24.840Z,78.18
2018-02-11T05:56:00.052Z,77.80
2018-02-11T05:56:35.336Z,77.14
2018-02-11T05:57:10.648Z,77.33
2018-02-11T05:57:46.742Z,76.95
2018-02-11T05:58:22.196Z,76.76
2018-02-11T05:58:57.523Z,76.76
2018-02-11T05:59:32.850Z,76.76
2018-02-11T06:00:08.167Z,76.38
2018-02-11T06:00:46.658Z,75.76
2018-02-11T06:01:22.074Z,76.29
2018-02-11T06:01:57.373Z,76.00
2018-02-11T06:02:32.689Z,76.04
2018-02-11T06:03:07.888Z,75.66
2018-02-11T06:03:43.334Z,75.66
2018-02-11T06:04:18.631Z,75.28
2018-02-11T06:04:54.058Z,75.09
2018-02-11T06:05:29.360Z,75.09
2018-02-11T06:06:04.891Z,75.09
2018-02-11T06:06:41.322Z,75.38
2018-02-11T06:07:16.614Z,75.28
2018-02-11T06:07:52.237Z,75.28
2018-02-11T06:08:27.537Z,75.28
2018-02-11T06:09:02.881Z,75.28
2018-02-11T06:09:38.384Z,75.47
2018-02-11T06:10:13.811Z,74.62
2018-02-11T06:10:50.510Z,74.71
2018-02-11T06:11:25.831Z,74.71
2018-02-11T06:12:01.258Z,74.71
2018-02-11T06:12:36.461Z,74.71
2018-02-11T06:13:11.785Z,74.43
2018-02-11T06:13:47.115Z,74.52
2018-02-11T06:14:22.336Z,74.52
2018-02-11T06:14:57.742Z,74.15
2018-02-11T06:15:33.655Z,74.43
2018-02-11T06:16:08.951Z,74.15
2018-02-11T06:16:44.174Z,74.05
2018-02-11T06:17:19.576Z,74.52
2018-02-11T06:17:54.999Z,74.15
2018-02-11T06:18:30.229Z,74.15
2018-02-11T06:19:05.457Z,74.15
2018-02-11T06:19:40.775Z,73.49
2018-02-11T06:20:16.073Z,73.49
2018-02-11T06:20:51.997Z,73.68
2018-02-11T06:21:27.195Z,74.05
2018-02-11T06:22:02.526Z,73.68
2018-02-11T06:22:37.831Z,73.68
2018-02-11T06:23:13.056Z,74.15
2018-02-11T06:23:48.246Z,73.49
2018-02-11T06:24:23.594Z,73.96
2018-02-11T06:24:58.921Z,73.11
2018-02-11T06:25:34.827Z,73.11
2018-02-11T06:26:11.746Z,73.01
2018-02-11T06:26:47.137Z,73.01
2018-02-11T06:27:22.558Z,73.11
2018-02-11T06:27:57.953Z,72.44
2018-02-11T06:28:33.376Z,72.63
2018-02-11T06:29:08.701Z,72.63
2018-02-11T06:29:44.228Z,71.97
2018-02-11T06:30:19.730Z,72.16
2018-02-11T06:30:55.160Z,71.88
2018-02-11T06:31:30.592Z,72.16
2018-02-11T06:32:05.891Z,71.50
2018-02-11T06:32:41.015Z,71.69
2018-02-11T06:33:16.011Z,71.12
2018-02-11T06:33:51.235Z,71.02
2018-02-11T06:34:26.661Z,71.21
2018-02-11T06:35:02.190Z,70.64
2018-02-11T06:35:37.992Z,71.02
2018-02-11T06:36:13.420Z,71.31
2018-02-11T06:36:48.842Z,71.21
2018-02-11T06:37:24.049Z,71.12
2018-02-11T06:37:59.682Z,71.40
2018-02-11T06:38:34.886Z,71.50
2018-02-11T06:39:10.336Z,71.97
2018-02-11T06:39:45.738Z,72.06
2018-02-11T06:40:21.255Z,71.02
2018-02-11T06:40:56.709Z,70.93
2018-02-11T06:41:32.237Z,71.12
2018-02-11T06:42:07.736Z,71.02
2018-02-11T06:42:43.963Z,71.21
2018-02-11T06:43:19.487Z,70.93
2018-02-11T06:43:54.891Z,70.93
2018-02-11T06:44:30.636Z,71.31
2018-02-11T06:45:06.349Z,71.21
2018-02-11T06:45:44.776Z,70.83
2018-02-11T06:46:20.373Z,70.74
2018-02-11T06:46:56.003Z,71.12
2018-02-11T06:47:31.397Z,71.21
2018-02-11T06:48:06.622Z,70.64
2018-02-11T06:48:42.146Z,70.74
2018-02-11T06:49:17.378Z,70.74
2018-02-11T06:49:52.518Z,70.74
2018-02-11T06:50:27.814Z,70.83
2018-02-11T06:51:03.041Z,71.40
2018-02-11T06:51:38.545Z,71.31
2018-02-11T06:52:13.771Z,71.31
2018-02-11T06:52:49.368Z,70.64
2018-02-11T06:53:24.785Z,70.45
2018-02-11T06:54:00.092Z,71.02
2018-02-11T06:54:35.143Z,70.55
2018-02-11T06:55:10.394Z,70.36
2018-02-11T06:55:46.637Z,70.36
2018-02-11T06:56:21.680Z,70.36
2018-02-11T06:56:56.989Z,70.17
2018-02-11T06:57:32.426Z,70.07
2018-02-11T06:58:07.722Z,70.07
2018-02-11T06:58:42.847Z,70.45
2018-02-11T06:59:18.178Z,70.45
2018-02-11T06:59:53.595Z,70.36
2018-02-11T07:00:28.894Z,70.45
2018-02-11T07:01:04.111Z,69.70
2018-02-11T07:01:39.542Z,69.70
2018-02-11T07:02:15.039Z,70.26
2018-02-11T07:02:50.268Z,70.36
2018-02-11T07:03:25.269Z,70.17
2018-02-11T07:04:00.494Z,70.36
2018-02-11T07:04:36.021Z,69.79
2018-02-11T07:05:11.236Z,70.26
2018-02-11T07:05:48.142Z,70.26
2018-02-11T07:06:25.657Z,70.26
2018-02-11T07:07:01.257Z,70.07
2018-02-11T07:07:36.581Z,70.07
2018-02-11T07:08:11.877Z,69.98
2018-02-11T07:08:47.590Z,70.07
2018-02-11T07:09:22.942Z,70.07
2018-02-11T07:09:58.642Z,70.36
2018-02-11T07:10:34.067Z,69.79
2018-02-11T07:11:10.065Z,69.70
2018-02-11T07:11:45.417Z,69.79
2018-02-11T07:12:20.617Z,69.79
2018-02-11T07:12:55.964Z,69.79
2018-02-11T07:13:31.095Z,70.26
2018-02-11T07:14:06.415Z,69.98
2018-02-11T07:14:41.866Z,69.41
2018-02-11T07:15:17.355Z,69.32
2018-02-11T07:15:52.782Z,69.32
2018-02-11T07:16:27.981Z,69.60
2018-02-11T07:17:03.205Z,69.32
2018-02-11T07:17:38.403Z,69.22
2018-02-11T07:18:13.925Z,68.94
2018-02-11T07:18:49.164Z,68.94
2018-02-11T07:19:24.864Z,69.22
2018-02-11T07:20:01.088Z,69.32
2018-02-11T07:20:37.823Z,68.37
2018-02-11T07:21:14.364Z,68.18
2018-02-11T07:21:49.749Z,68.37
2018-02-11T07:22:25.388Z,68.27
2018-02-11T07:23:01.781Z,68.37
2018-02-11T07:23:37.450Z,68.37
2018-02-11T07:24:12.762Z,68.37
2018-02-11T07:24:49.326Z,68.46
2018-02-11T07:25:24.829Z,68.18
2018-02-11T07:25:59.988Z,68.65
2018-02-11T07:26:35.515Z,68.56
2018-02-11T07:27:11.486Z,68.08
2018-02-11T07:27:46.511Z,68.46
2018-02-11T07:28:22.087Z,68.08
2018-02-11T07:28:57.963Z,68.27
2018-02-11T07:29:33.201Z,68.18
2018-02-11T07:30:12.818Z,68.08
2018-02-11T07:30:49.398Z,67.90
2018-02-11T07:31:24.657Z,68.08
2018-02-11T07:32:00.247Z,67.33
2018-02-11T07:32:36.932Z,67.24
2018-02-11T07:33:13.244Z,67.05
2018-02-11T07:33:50.088Z,66.76
2018-02-11T07:34:24.819Z,66.95
2018-02-11T07:35:00.043Z,66.57
2018-02-11T07:35:36.654Z,66.28
2018-02-11T07:36:12.332Z,65.91
2018-02-11T07:36:48.038Z,65.44
2018-02-11T07:37:23.251Z,65.53
2018-02-11T07:37:58.843Z,65.15
2018-02-11T07:38:34.448Z,65.44